createdAt,value
2023-04-27T00:00:17.450Z,23.66
2023-04-27T00:01:17.505Z,23.69
2023-04-27T00:02:17.601Z,23.71
2023-04-27T00:03:17.797Z,23.71
2023-04-27T00:04:17.937Z,23.73
2023-04-27T00:05:17.794Z,23.73
2023-04-27T00:06:17.795Z,23.74
2023-04-27T00:07:17.817Z,23.75
2023-04-27T00:08:17.859Z,23.75
2023-04-27T00:09:17.913Z,23.75
2023-04-27T00:10:17.966Z,23.75
2023-04-27T00:11:18.015Z,23.76
2023-04-27T00:12:18.057Z,23.76
2023-04-27T00:13:18.123Z,23.75
2023-04-27T00:14:18.153Z,23.76
2023-04-27T00:15:18.182Z,23.75
2023-04-27T00:16:18.292Z,23.76
2023-04-27T00:17:18.296Z,23.75
2023-04-27T00:18:18.364Z,23.75
2023-04-27T00:19:18.411Z,23.75
2023-04-27T00:20:18.479Z,23.75
2023-04-27T00:21:18.513Z,23.76
2023-04-27T00:22:18.553Z,23.76
2023-04-27T00:23:18.586Z,23.75
2023-04-27T00:24:18.637Z,23.76
2023-04-27T00:25:18.675Z,23.75
2023-04-27T00:26:18.705Z,23.75
2023-04-27T00:27:18.738Z,23.75
2023-04-27T00:28:18.747Z,23.76
2023-04-27T00:29:18.800Z,23.75
2023-04-27T00:30:18.797Z,23.75
2023-04-27T00:31:18.829Z,23.75
2023-04-27T00:32:18.994Z,23.75
2023-04-27T00:33:18.876Z,23.75
2023-04-27T00:34:18.874Z,23.74
2023-04-27T00:35:18.907Z,23.74
2023-04-27T00:36:18.914Z,23.75
2023-04-27T00:37:18.957Z,23.75
2023-04-27T00:38:18.965Z,23.74
2023-04-27T00:39:18.996Z,23.75
2023-04-27T00:40:19.014Z,23.75
2023-04-27T00:41:19.069Z,23.74
2023-04-27T00:42:19.114Z,23.75
2023-04-27T00:43:19.169Z,23.76
2023-04-27T00:44:19.209Z,23.75
2023-04-27T00:45:19.256Z,23.75
2023-04-27T00:46:19.318Z,23.75
2023-04-27T00:47:19.372Z,23.75
2023-04-27T00:48:19.320Z,23.75
2023-04-27T00:49:19.348Z,23.75
2023-04-27T00:50:19.379Z,23.75
2023-04-27T00:51:19.380Z,23.74
2023-04-27T00:52:19.391Z,23.75
2023-04-27T00:53:19.412Z,23.75
2023-04-27T00:54:19.439Z,23.74
2023-04-27T00:55:19.446Z,23.75
2023-04-27T00:56:19.466Z,23.75
2023-04-27T00:57:19.480Z,23.75
2023-04-27T00:58:19.491Z,23.75
2023-04-27T00:59:19.507Z,23.75
2023-04-27T01:00:19.510Z,23.75
2023-04-27T01:01:19.569Z,23.75
2023-04-27T01:02:19.642Z,23.75
2023-04-27T01:03:19.673Z,23.75
2023-04-27T01:04:19.688Z,23.75
2023-04-27T01:05:19.525Z,23.74
2023-04-27T01:06:19.535Z,23.74
2023-04-27T01:07:19.586Z,23.75
2023-04-27T01:08:19.599Z,23.74
2023-04-27T01:09:19.632Z,23.75
2023-04-27T01:10:19.641Z,23.75
2023-04-27T01:11:19.652Z,23.75
2023-04-27T01:12:19.661Z,23.74
2023-04-27T01:13:19.659Z,23.74
2023-04-27T01:14:19.680Z,23.74
2023-04-27T01:15:19.703Z,23.74
2023-04-27T01:16:19.736Z,23.74
2023-04-27T01:17:19.757Z,23.74
2023-04-27T01:18:19.751Z,23.73
2023-04-27T01:19:19.800Z,23.74
2023-04-27T01:20:19.813Z,23.74
2023-04-27T01:21:19.829Z,23.74
2023-04-27T01:22:19.845Z,23.73
2023-04-27T01:23:19.831Z,23.74
2023-04-27T01:24:19.859Z,23.74
2023-04-27T01:25:19.893Z,23.74
2023-04-27T01:26:19.892Z,23.74
2023-04-27T01:27:19.913Z,23.74
2023-04-27T01:28:19.910Z,23.74
2023-04-27T01:29:19.895Z,23.74
2023-04-27T01:30:19.892Z,23.73
2023-04-27T01:31:19.952Z,23.74
2023-04-27T01:32:19.899Z,23.73
2023-04-27T01:33:19.933Z,23.73
2023-04-27T01:34:19.923Z,23.74
2023-04-27T01:35:19.928Z,23.74
2023-04-27T01:36:19.949Z,23.74
2023-04-27T01:37:20.006Z,23.73
2023-04-27T01:38:19.951Z,23.73
2023-04-27T01:39:19.975Z,23.74
2023-04-27T01:40:19.979Z,23.73
2023-04-27T01:41:19.996Z,23.73
2023-04-27T01:42:20.028Z,23.73
2023-04-27T01:43:20.045Z,23.73
2023-04-27T01:44:20.040Z,23.73
2023-04-27T01:45:20.052Z,23.73
2023-04-27T01:46:20.097Z,23.73
2023-04-27T01:47:20.091Z,23.73
2023-04-27T01:48:20.081Z,23.72
2023-04-27T01:49:20.121Z,23.73
2023-04-27T01:50:20.123Z,23.73
2023-04-27T01:51:20.105Z,23.73
2023-04-27T01:52:20.095Z,23.74
2023-04-27T01:53:20.091Z,23.73
2023-04-27T01:54:20.091Z,23.73
2023-04-27T01:55:20.129Z,23.73
2023-04-27T01:56:20.112Z,23.73
2023-04-27T01:57:20.110Z,23.74
2023-04-27T01:58:20.117Z,23.73
2023-04-27T01:59:20.120Z,23.73
2023-04-27T02:00:20.120Z,23.74
2023-04-27T02:01:20.179Z,23.74
2023-04-27T02:02:20.155Z,23.73
2023-04-27T02:03:20.237Z,23.73
2023-04-27T02:04:20.281Z,23.74
2023-04-27T02:05:20.196Z,23.73
2023-04-27T02:06:20.164Z,23.73
2023-04-27T02:07:20.209Z,23.73
2023-04-27T02:08:20.171Z,23.73
2023-04-27T02:09:20.167Z,23.73
2023-04-27T02:10:20.160Z,23.73
2023-04-27T02:11:20.149Z,23.73
2023-04-27T02:12:20.171Z,23.73
2023-04-27T02:13:20.144Z,23.73
2023-04-27T02:14:20.139Z,23.73
2023-04-27T02:15:20.136Z,23.73
2023-04-27T02:16:20.713Z,23.73
2023-04-27T02:17:20.212Z,23.73
2023-04-27T02:18:20.188Z,23.74
2023-04-27T02:19:20.197Z,23.73
2023-04-27T02:20:20.214Z,23.73
2023-04-27T02:21:20.242Z,23.74
2023-04-27T02:22:20.209Z,23.73
2023-04-27T02:23:20.217Z,23.73
2023-04-27T02:24:20.241Z,23.74
2023-04-27T02:25:20.259Z,23.73
2023-04-27T02:26:20.253Z,23.73
2023-04-27T02:27:20.257Z,23.73
2023-04-27T02:28:20.262Z,23.73
2023-04-27T02:29:20.257Z,23.73
2023-04-27T02:30:20.235Z,23.73
2023-04-27T02:31:20.337Z,23.73
2023-04-27T02:32:20.267Z,23.73
2023-04-27T02:33:20.268Z,23.73
2023-04-27T02:34:20.283Z,23.73
2023-04-27T02:35:20.301Z,23.73
2023-04-27T02:36:20.289Z,23.73
2023-04-27T02:37:20.328Z,23.73
2023-04-27T02:38:20.305Z,23.73
2023-04-27T02:39:20.309Z,23.72
2023-04-27T02:40:20.315Z,23.73
2023-04-27T02:41:20.309Z,23.73
2023-04-27T02:42:20.308Z,23.73
2023-04-27T02:43:20.328Z,23.72
2023-04-27T02:44:20.338Z,23.72
2023-04-27T02:45:20.356Z,23.73
2023-04-27T02:46:20.445Z,23.72
2023-04-27T02:47:20.451Z,23.73
2023-04-27T02:48:20.473Z,23.73
2023-04-27T02:49:20.500Z,23.72
2023-04-27T02:50:20.528Z,23.73
2023-04-27T02:51:20.530Z,23.72
2023-04-27T02:52:20.599Z,23.73
2023-04-27T02:53:20.569Z,23.72
2023-04-27T02:54:20.563Z,23.72
2023-04-27T02:55:20.543Z,23.73
2023-04-27T02:56:20.548Z,23.72
2023-04-27T02:57:20.547Z,23.73
2023-04-27T02:58:20.560Z,23.73
2023-04-27T02:59:20.559Z,23.73
2023-04-27T03:00:20.579Z,23.72
2023-04-27T03:01:20.702Z,23.73
2023-04-27T03:02:20.688Z,23.72
2023-04-27T03:03:20.726Z,23.72
2023-04-27T03:04:20.774Z,23.72
2023-04-27T03:05:20.680Z,23.73
2023-04-27T03:06:20.683Z,23.73
2023-04-27T03:07:20.713Z,23.73
2023-04-27T03:08:20.718Z,23.72
2023-04-27T03:09:20.786Z,23.72
2023-04-27T03:10:20.772Z,23.72
2023-04-27T03:11:20.812Z,23.73
2023-04-27T03:12:20.852Z,23.72
2023-04-27T03:13:20.914Z,23.72
2023-04-27T03:14:20.936Z,23.73
2023-04-27T03:15:20.952Z,23.72
2023-04-27T03:16:21.005Z,23.72
2023-04-27T03:17:20.998Z,23.72
2023-04-27T03:18:21.004Z,23.72
2023-04-27T03:19:21.013Z,23.72
2023-04-27T03:20:21.027Z,23.73
2023-04-27T03:21:21.010Z,23.73
2023-04-27T03:22:21.042Z,23.72
2023-04-27T03:23:21.049Z,23.73
2023-04-27T03:24:21.074Z,23.72
2023-04-27T03:25:21.103Z,23.72
2023-04-27T03:26:21.087Z,23.73
2023-04-27T03:27:21.090Z,23.73
2023-04-27T03:28:21.103Z,23.72
2023-04-27T03:29:21.130Z,23.72
2023-04-27T03:30:21.150Z,23.72
2023-04-27T03:31:21.203Z,23.72
2023-04-27T03:32:21.196Z,23.72
2023-04-27T03:33:21.161Z,23.72
2023-04-27T03:34:21.158Z,23.72
2023-04-27T03:35:21.159Z,23.72
2023-04-27T03:36:21.171Z,23.72
2023-04-27T03:37:21.166Z,23.72
2023-04-27T03:38:21.157Z,23.71
2023-04-27T03:39:21.160Z,23.72
2023-04-27T03:40:21.171Z,23.72
2023-04-27T03:41:21.218Z,23.72
2023-04-27T03:42:21.326Z,23.72
2023-04-27T03:43:21.165Z,23.71
2023-04-27T03:44:21.193Z,23.72
2023-04-27T03:45:21.192Z,23.72
2023-04-27T03:46:21.208Z,23.72
2023-04-27T03:47:21.228Z,23.72
2023-04-27T03:48:21.231Z,23.72
2023-04-27T03:49:21.241Z,23.72
2023-04-27T03:50:21.249Z,23.72
2023-04-27T03:51:21.249Z,23.72
2023-04-27T03:52:21.295Z,23.72
2023-04-27T03:53:21.275Z,23.72
2023-04-27T03:54:21.293Z,23.72
2023-04-27T03:55:21.287Z,23.72
2023-04-27T03:56:21.260Z,23.71
2023-04-27T03:57:21.288Z,23.72
2023-04-27T03:58:21.247Z,23.72
2023-04-27T03:59:21.268Z,23.72
2023-04-27T04:00:21.253Z,23.73
2023-04-27T04:01:21.263Z,23.72
2023-04-27T04:02:21.320Z,23.72
2023-04-27T04:03:21.604Z,23.72
2023-04-27T04:04:21.381Z,23.72
2023-04-27T04:05:21.312Z,23.72
2023-04-27T04:06:21.263Z,23.72
2023-04-27T04:07:21.262Z,23.71
2023-04-27T04:08:21.259Z,23.72
2023-04-27T04:09:23.724Z,23.72
2023-04-27T04:10:21.257Z,23.72
2023-04-27T04:11:21.239Z,23.71
2023-04-27T04:12:21.241Z,23.72
2023-04-27T04:13:21.246Z,23.72
2023-04-27T04:14:21.233Z,23.71
2023-04-27T04:15:21.216Z,23.72
2023-04-27T04:16:21.255Z,23.71
2023-04-27T04:17:21.198Z,23.72
2023-04-27T04:18:21.196Z,23.72
2023-04-27T04:19:22.157Z,23.71
2023-04-27T04:20:21.174Z,23.71
2023-04-27T04:21:21.176Z,23.71
2023-04-27T04:22:21.161Z,23.71
2023-04-27T04:23:21.147Z,23.71
2023-04-27T04:24:21.145Z,23.72
2023-04-27T04:25:21.146Z,23.72
2023-04-27T04:26:21.125Z,23.71
2023-04-27T04:27:21.123Z,23.72
2023-04-27T04:28:21.112Z,23.72
2023-04-27T04:29:21.234Z,23.72
2023-04-27T04:30:21.109Z,23.72
2023-04-27T04:31:21.149Z,23.71
2023-04-27T04:32:21.092Z,23.71
2023-04-27T04:33:21.083Z,23.72
2023-04-27T04:34:21.095Z,23.72
2023-04-27T04:35:21.074Z,23.72
2023-04-27T04:36:21.060Z,23.72
2023-04-27T04:37:21.069Z,23.72
2023-04-27T04:38:21.053Z,23.72
2023-04-27T04:39:21.052Z,23.72
2023-04-27T04:40:21.044Z,23.72
2023-04-27T04:41:21.032Z,23.72
2023-04-27T04:42:21.047Z,23.72
2023-04-27T04:43:21.017Z,23.72
2023-04-27T04:44:21.017Z,23.72
2023-04-27T04:45:21.037Z,23.71
2023-04-27T04:46:21.011Z,23.72
2023-04-27T04:47:21.050Z,23.71
2023-04-27T04:48:20.984Z,23.71
2023-04-27T04:49:20.978Z,23.71
2023-04-27T04:50:20.970Z,23.71
2023-04-27T04:51:20.959Z,23.71
2023-04-27T04:52:20.952Z,23.71
2023-04-27T04:53:20.953Z,23.71
2023-04-27T04:54:20.952Z,23.72
2023-04-27T04:55:20.931Z,23.71
2023-04-27T04:56:20.933Z,23.72
2023-04-27T04:57:20.917Z,23.72
2023-04-27T04:58:20.910Z,23.72
2023-04-27T04:59:20.929Z,23.72
2023-04-27T05:00:20.893Z,23.71
2023-04-27T05:01:20.952Z,23.72
2023-04-27T05:02:21.104Z,23.72
2023-04-27T05:03:20.986Z,23.72
2023-04-27T05:04:21.144Z,23.72
2023-04-27T05:05:21.233Z,23.72
2023-04-27T05:06:20.861Z,23.72
2023-04-27T05:07:24.765Z,23.72
2023-04-27T05:08:20.857Z,23.72
2023-04-27T05:09:21.223Z,23.72
2023-04-27T05:10:20.846Z,23.72
2023-04-27T05:11:20.852Z,23.72
2023-04-27T05:12:20.883Z,23.72
2023-04-27T05:13:20.903Z,23.72
2023-04-27T05:14:20.891Z,23.72
2023-04-27T05:15:20.955Z,23.72
2023-04-27T05:16:20.993Z,23.72
2023-04-27T05:17:20.960Z,23.73
2023-04-27T05:18:20.923Z,23.72
2023-04-27T05:19:20.941Z,23.72
2023-04-27T05:20:21.253Z,23.72
2023-04-27T05:21:20.963Z,23.73
2023-04-27T05:22:21.256Z,23.73
2023-04-27T05:23:20.987Z,23.73
2023-04-27T05:24:20.994Z,23.74
2023-04-27T05:25:21.015Z,23.75
2023-04-27T05:26:21.035Z,23.75
2023-04-27T05:27:21.230Z,23.75
2023-04-27T05:28:21.094Z,23.76
2023-04-27T05:29:21.139Z,23.77
2023-04-27T05:30:21.166Z,23.77
2023-04-27T05:31:21.290Z,23.79
2023-04-27T05:32:21.305Z,23.80
2023-04-27T05:33:21.420Z,23.80
2023-04-27T05:34:21.358Z,23.81
2023-04-27T05:35:21.733Z,23.82
2023-04-27T05:36:21.436Z,23.83
2023-04-27T05:37:21.480Z,23.81
2023-04-27T05:38:21.536Z,23.78
2023-04-27T05:39:21.586Z,23.78
2023-04-27T05:40:21.738Z,23.76
2023-04-27T05:41:21.672Z,23.74
2023-04-27T05:42:21.668Z,23.73
2023-04-27T05:43:21.740Z,23.74
2023-04-27T05:44:21.712Z,23.75
2023-04-27T05:45:21.755Z,23.76
2023-04-27T05:46:21.873Z,23.78
2023-04-27T05:47:21.918Z,23.80
2023-04-27T05:48:21.845Z,23.82
2023-04-27T05:49:21.911Z,23.83
2023-04-27T05:50:22.240Z,23.85
2023-04-27T05:51:22.036Z,23.87
2023-04-27T05:52:22.070Z,23.88
2023-04-27T05:53:23.239Z,23.89
2023-04-27T05:54:22.186Z,23.90
2023-04-27T05:55:22.282Z,23.91
2023-04-27T05:56:22.331Z,23.92
2023-04-27T05:57:25.568Z,23.93
2023-04-27T05:58:22.843Z,23.94
2023-04-27T05:59:22.354Z,23.98
2023-04-27T06:00:22.362Z,24.00
2023-04-27T06:01:22.331Z,24.02
2023-04-27T06:03:29.824Z,24.04
2023-04-27T06:04:29.881Z,24.05
2023-04-27T06:05:22.836Z,24.06
2023-04-27T06:06:22.306Z,24.08
2023-04-27T06:07:22.318Z,24.11
2023-04-27T06:08:22.757Z,24.12
2023-04-27T06:09:22.288Z,24.13
2023-04-27T06:10:22.762Z,24.16
2023-04-27T06:11:22.289Z,24.18
2023-04-27T06:12:22.273Z,24.20
2023-04-27T06:13:22.754Z,24.21
2023-04-27T06:14:22.241Z,24.23
2023-04-27T06:15:25.499Z,24.23
2023-04-27T06:16:22.258Z,24.24
2023-04-27T06:17:22.223Z,24.24
2023-04-27T06:18:22.247Z,24.26
2023-04-27T06:19:22.225Z,24.27
2023-04-27T06:20:22.293Z,24.27
2023-04-27T06:21:22.223Z,24.28
2023-04-27T06:22:22.204Z,24.30
2023-04-27T06:23:22.196Z,24.31
2023-04-27T06:24:22.197Z,24.31
2023-04-27T06:25:24.407Z,24.31
2023-04-27T06:26:22.196Z,24.32
2023-04-27T06:27:22.167Z,24.34
2023-04-27T06:28:22.158Z,24.36
2023-04-27T06:29:22.148Z,24.38
2023-04-27T06:30:22.150Z,24.38
2023-04-27T06:31:22.278Z,24.40
2023-04-27T06:32:23.470Z,24.41
2023-04-27T06:33:22.121Z,24.41
2023-04-27T06:34:22.135Z,24.42
2023-04-27T06:35:22.134Z,24.42
2023-04-27T06:36:22.462Z,24.43
2023-04-27T06:37:22.349Z,24.45
2023-04-27T06:38:22.085Z,24.45
2023-04-27T06:39:22.081Z,24.47
2023-04-27T06:40:22.069Z,24.48
2023-04-27T06:41:22.259Z,24.49
2023-04-27T06:42:22.089Z,24.10
2023-04-27T06:43:23.134Z,23.02
2023-04-27T06:44:22.180Z,22.34
2023-04-27T06:45:22.279Z,21.89
2023-04-27T06:46:22.303Z,21.47
2023-04-27T06:47:22.247Z,20.94
2023-04-27T06:48:22.286Z,20.48
2023-04-27T06:49:22.296Z,20.22
2023-04-27T06:50:22.775Z,20.03
2023-04-27T06:51:22.411Z,19.79
2023-04-27T06:52:22.497Z,19.61
2023-04-27T06:53:22.447Z,19.46
2023-04-27T06:54:22.474Z,19.30
2023-04-27T06:55:22.473Z,19.13
2023-04-27T06:56:22.777Z,19.11
2023-04-27T06:57:22.485Z,19.04
2023-04-27T06:58:22.763Z,18.91
2023-04-27T06:59:22.508Z,18.83
2023-04-27T07:00:22.488Z,18.73
2023-04-27T07:01:22.534Z,18.61
2023-04-27T07:02:24.955Z,18.51
2023-04-27T07:03:22.963Z,18.44
2023-04-27T07:04:22.592Z,18.45
2023-04-27T07:05:23.509Z,18.50
2023-04-27T07:06:22.511Z,18.55
2023-04-27T07:07:22.523Z,18.48
2023-04-27T07:08:22.815Z,18.50
2023-04-27T07:09:27.492Z,18.58
2023-04-27T07:10:22.478Z,18.58
2023-04-27T07:11:22.480Z,18.76
2023-04-27T07:12:22.500Z,19.03
2023-04-27T07:13:22.893Z,19.32
2023-04-27T07:14:22.454Z,19.61
2023-04-27T07:15:22.857Z,19.91
2023-04-27T07:16:22.465Z,20.19
2023-04-27T07:17:22.447Z,20.45
2023-04-27T07:18:22.426Z,20.68
2023-04-27T07:19:22.422Z,20.90
2023-04-27T07:20:25.626Z,21.12
2023-04-27T07:21:22.773Z,21.30
2023-04-27T07:22:22.420Z,21.48
2023-04-27T07:23:22.775Z,21.65
2023-04-27T07:24:22.409Z,21.80
2023-04-27T07:25:22.360Z,21.95
2023-04-27T07:26:22.774Z,22.08
2023-04-27T07:27:22.343Z,22.20
2023-04-27T07:28:23.786Z,22.32
2023-04-27T07:29:27.070Z,22.41
2023-04-27T07:30:22.336Z,22.51
2023-04-27T07:31:22.837Z,22.60
2023-04-27T07:32:22.355Z,22.70
2023-04-27T07:33:22.314Z,22.78
2023-04-27T07:34:23.299Z,22.85
2023-04-27T07:35:22.294Z,22.92
2023-04-27T07:36:22.777Z,23.00
2023-04-27T07:37:22.442Z,23.06
2023-04-27T07:38:22.293Z,23.13
2023-04-27T07:39:22.329Z,23.18
2023-04-27T07:40:22.984Z,23.24
2023-04-27T07:41:22.301Z,23.27
2023-04-27T07:42:22.313Z,23.34
2023-04-27T07:43:22.284Z,23.39
2023-04-27T07:44:22.226Z,23.44
2023-04-27T07:45:22.369Z,23.49
2023-04-27T07:46:22.357Z,23.52
2023-04-27T07:47:22.246Z,23.56
2023-04-27T07:48:22.347Z,23.61
2023-04-27T07:49:22.184Z,23.65
2023-04-27T07:50:22.197Z,23.67
2023-04-27T07:51:22.307Z,23.70
2023-04-27T07:52:22.292Z,23.73
2023-04-27T07:53:22.292Z,23.77
2023-04-27T07:54:22.818Z,23.78
2023-04-27T07:55:22.390Z,23.82
2023-04-27T07:56:22.638Z,23.85
2023-04-27T07:57:22.810Z,23.86
2023-04-27T07:58:22.574Z,23.89
2023-04-27T07:59:22.633Z,23.91
2023-04-27T08:00:22.682Z,23.93
2023-04-27T08:01:22.734Z,23.95
2023-04-27T08:02:23.438Z,23.98
2023-04-27T08:03:23.132Z,23.99
2023-04-27T08:04:23.329Z,24.01
2023-04-27T08:05:23.158Z,24.04
2023-04-27T08:06:23.892Z,24.05
2023-04-27T08:07:23.301Z,24.07
2023-04-27T08:08:23.306Z,24.10
2023-04-27T08:09:23.110Z,24.11
2023-04-27T08:10:23.125Z,24.12
2023-04-27T08:11:23.284Z,24.14
2023-04-27T08:12:23.804Z,24.16
2023-04-27T08:13:24.914Z,24.17
2023-04-27T08:14:23.248Z,24.19
2023-04-27T08:15:23.244Z,24.21
2023-04-27T08:16:23.333Z,24.23
2023-04-27T08:17:23.221Z,24.24
2023-04-27T08:18:23.214Z,24.25
2023-04-27T08:19:23.211Z,24.28
2023-04-27T08:20:23.369Z,24.30
2023-04-27T08:21:23.789Z,24.33
2023-04-27T08:22:23.203Z,24.34
2023-04-27T08:23:23.189Z,24.36
2023-04-27T08:24:23.302Z,24.37
2023-04-27T08:25:23.167Z,24.39
2023-04-27T08:26:25.642Z,24.41
2023-04-27T08:27:23.162Z,24.44
2023-04-27T08:28:23.353Z,24.45
2023-04-27T08:29:27.889Z,24.47
2023-04-27T08:30:23.159Z,24.48
2023-04-27T08:31:23.177Z,24.49
2023-04-27T08:32:23.294Z,24.51
2023-04-27T08:33:23.125Z,24.52
2023-04-27T08:34:23.100Z,24.54
2023-04-27T08:35:23.338Z,24.55
2023-04-27T08:36:23.110Z,24.57
2023-04-27T08:37:23.333Z,24.58
2023-04-27T08:38:25.552Z,24.60
2023-04-27T08:39:23.081Z,24.62
2023-04-27T08:40:24.085Z,24.65
2023-04-27T08:41:23.069Z,24.67
2023-04-27T08:42:23.053Z,24.64
2023-04-27T08:43:23.295Z,24.55
2023-04-27T08:44:23.414Z,24.46
2023-04-27T08:45:23.317Z,24.36
2023-04-27T08:46:23.116Z,24.29
2023-04-27T08:47:31.409Z,24.25
2023-04-27T08:48:23.346Z,24.20
2023-04-27T08:49:23.006Z,24.16
2023-04-27T08:50:23.106Z,24.12
2023-04-27T08:51:23.299Z,24.09
2023-04-27T08:52:23.061Z,24.08
2023-04-27T08:53:23.012Z,24.05
2023-04-27T08:54:23.304Z,24.02
2023-04-27T08:55:22.986Z,24.00
2023-04-27T08:56:23.318Z,23.97
2023-04-27T08:57:22.966Z,23.96
2023-04-27T08:58:22.955Z,23.95
2023-04-27T08:59:22.951Z,23.94
2023-04-27T09:00:23.114Z,23.93
2023-04-27T09:01:23.347Z,23.92
2023-04-27T09:02:23.012Z,23.91
2023-04-27T09:03:23.107Z,23.89
2023-04-27T09:04:23.520Z,23.87
2023-04-27T09:05:22.955Z,23.85
2023-04-27T09:06:23.474Z,23.84
2023-04-27T09:07:22.898Z,23.83
2023-04-27T09:08:22.893Z,23.81
2023-04-27T09:09:22.929Z,23.81
2023-04-27T09:10:24.323Z,23.82
2023-04-27T09:11:23.308Z,23.83
2023-04-27T09:12:23.309Z,23.81
2023-04-27T09:13:23.152Z,23.81
2023-04-27T09:14:23.235Z,23.81
2023-04-27T09:15:23.273Z,23.82
2023-04-27T09:16:23.867Z,23.81
2023-04-27T09:17:23.417Z,23.80
2023-04-27T09:18:23.440Z,23.79
2023-04-27T09:19:23.500Z,23.82
2023-04-27T09:20:23.563Z,23.85
2023-04-27T09:21:23.824Z,23.89
2023-04-27T09:22:23.676Z,23.93
2023-04-27T09:23:23.719Z,23.98
2023-04-27T09:24:23.780Z,24.02
2023-04-27T09:25:23.816Z,24.05
2023-04-27T09:26:24.313Z,24.09
2023-04-27T09:27:24.333Z,24.12
2023-04-27T09:28:23.943Z,24.15
2023-04-27T09:29:23.969Z,24.17
2023-04-27T09:30:27.203Z,24.20
2023-04-27T09:31:24.429Z,24.22
2023-04-27T09:32:24.065Z,24.24
2023-04-27T09:33:23.981Z,24.26
2023-04-27T09:34:24.080Z,24.28
2023-04-27T09:35:23.955Z,24.28
2023-04-27T09:36:24.317Z,24.29
2023-04-27T09:37:24.319Z,24.31
2023-04-27T09:38:23.942Z,24.33
2023-04-27T09:39:23.921Z,24.34
2023-04-27T09:40:23.928Z,24.34
2023-04-27T09:41:23.938Z,24.36
2023-04-27T09:42:24.331Z,24.36
2023-04-27T09:43:23.904Z,24.37
2023-04-27T09:44:24.324Z,24.39
2023-04-27T09:45:23.888Z,24.39
2023-04-27T09:46:24.388Z,24.40
2023-04-27T09:47:24.353Z,24.40
2023-04-27T09:48:23.898Z,24.41
2023-04-27T09:49:23.857Z,24.41
2023-04-27T09:50:23.869Z,24.42
2023-04-27T09:51:23.849Z,24.43
2023-04-27T09:52:23.836Z,24.43
2023-04-27T09:53:23.834Z,24.45
2023-04-27T09:54:23.825Z,24.44
2023-04-27T09:55:23.836Z,24.44
2023-04-27T09:56:23.841Z,24.46
2023-04-27T09:57:23.808Z,24.44
2023-04-27T09:58:23.848Z,24.46
2023-04-27T09:59:23.838Z,24.46
2023-04-27T10:00:23.801Z,24.46
2023-04-27T10:01:23.810Z,24.46
2023-04-27T10:02:25.578Z,24.47
2023-04-27T10:03:23.839Z,24.47
2023-04-27T10:04:24.088Z,24.47
2023-04-27T10:05:23.905Z,24.47
2023-04-27T10:06:23.784Z,24.48
2023-04-27T10:07:23.767Z,24.49
2023-04-27T10:08:23.766Z,24.49
2023-04-27T10:09:24.431Z,24.50
2023-04-27T10:10:23.723Z,24.51
2023-04-27T10:11:23.741Z,24.51
2023-04-27T10:12:23.704Z,24.52
2023-04-27T10:13:23.715Z,24.51
2023-04-27T10:14:23.865Z,24.51
2023-04-27T10:15:23.682Z,24.52
2023-04-27T10:16:23.864Z,24.52
2023-04-27T10:17:23.752Z,24.51
2023-04-27T10:18:23.658Z,24.52
2023-04-27T10:19:23.675Z,24.52
2023-04-27T10:20:23.686Z,24.53
2023-04-27T10:21:23.863Z,24.54
2023-04-27T10:22:23.911Z,24.55
2023-04-27T10:23:23.662Z,24.56
2023-04-27T10:24:23.844Z,24.56
2023-04-27T10:25:23.669Z,24.55
2023-04-27T10:26:23.628Z,24.53
2023-04-27T10:27:23.614Z,24.51
2023-04-27T10:28:23.617Z,24.49
2023-04-27T10:29:23.841Z,24.46
2023-04-27T10:30:23.663Z,24.45
2023-04-27T10:31:23.622Z,24.46
2023-04-27T10:32:23.925Z,24.48
2023-04-27T10:33:23.593Z,24.50
2023-04-27T10:34:23.857Z,24.51
2023-04-27T10:35:23.599Z,24.52
2023-04-27T10:36:23.593Z,24.54
2023-04-27T10:37:23.561Z,24.56
2023-04-27T10:38:23.560Z,24.57
2023-04-27T10:39:30.041Z,24.58
2023-04-27T10:40:23.612Z,24.58
2023-04-27T10:41:23.528Z,24.61
2023-04-27T10:42:23.527Z,24.62
2023-04-27T10:43:23.510Z,24.65
2023-04-27T10:44:23.847Z,24.66
2023-04-27T10:45:23.498Z,24.67
2023-04-27T10:46:23.876Z,24.68
2023-04-27T10:47:23.511Z,24.69
2023-04-27T10:48:23.500Z,24.70
2023-04-27T10:49:23.851Z,24.72
2023-04-27T10:50:23.482Z,24.73
2023-04-27T10:51:23.475Z,24.73
2023-04-27T10:52:23.493Z,24.75
2023-04-27T10:53:23.454Z,24.75
2023-04-27T10:54:23.455Z,24.76
2023-04-27T10:55:23.449Z,24.77
2023-04-27T10:56:23.440Z,24.77
2023-04-27T10:57:23.458Z,24.78
2023-04-27T10:58:23.438Z,24.79
2023-04-27T10:59:23.866Z,24.79
2023-04-27T11:00:23.879Z,24.81
2023-04-27T11:01:23.444Z,24.81
2023-04-27T11:02:23.486Z,24.82
2023-04-27T11:03:23.544Z,24.83
2023-04-27T11:04:23.412Z,24.84
2023-04-27T11:05:23.389Z,24.85
2023-04-27T11:06:23.915Z,24.86
2023-04-27T11:07:23.355Z,24.87
2023-04-27T11:08:23.384Z,24.88
2023-04-27T11:09:23.389Z,24.89
2023-04-27T11:10:23.339Z,24.90
2023-04-27T11:11:23.410Z,24.91
2023-04-27T11:12:23.319Z,24.91
2023-04-27T11:13:23.320Z,24.85
2023-04-27T11:14:23.361Z,24.77
2023-04-27T11:15:23.315Z,24.73
2023-04-27T11:16:23.457Z,24.73
2023-04-27T11:17:23.334Z,24.74
2023-04-27T11:18:23.287Z,24.76
2023-04-27T11:19:23.275Z,24.78
2023-04-27T11:20:23.269Z,24.79
2023-04-27T11:21:23.377Z,24.81
2023-04-27T11:22:23.242Z,24.82
2023-04-27T11:23:23.245Z,24.83
2023-04-27T11:24:23.258Z,24.84
2023-04-27T11:25:23.232Z,24.86
2023-04-27T11:26:23.397Z,24.87
2023-04-27T11:27:23.272Z,24.88
2023-04-27T11:28:23.311Z,24.89
2023-04-27T11:29:23.364Z,24.90
2023-04-27T11:30:23.390Z,24.91
2023-04-27T11:31:23.790Z,24.91
2023-04-27T11:32:23.958Z,24.92
2023-04-27T11:33:23.524Z,24.93
2023-04-27T11:34:23.542Z,24.94
2023-04-27T11:35:23.589Z,24.93
2023-04-27T11:36:23.606Z,24.94
2023-04-27T11:37:23.661Z,24.95
2023-04-27T11:38:23.725Z,24.95
2023-04-27T11:39:24.127Z,24.95
2023-04-27T11:40:24.659Z,24.97
2023-04-27T11:41:23.774Z,24.96
2023-04-27T11:42:23.845Z,24.96
2023-04-27T11:43:23.856Z,24.97
2023-04-27T11:44:23.895Z,24.97
2023-04-27T11:45:23.965Z,24.97
2023-04-27T11:46:24.017Z,24.97
2023-04-27T11:47:24.014Z,24.97
2023-04-27T11:48:24.045Z,24.98
2023-04-27T11:49:24.382Z,24.97
2023-04-27T11:50:24.102Z,24.98
2023-04-27T11:51:24.154Z,24.98
2023-04-27T11:52:24.194Z,24.98
2023-04-27T11:53:24.226Z,24.97
2023-04-27T11:54:24.280Z,24.98
2023-04-27T11:55:24.319Z,24.98
2023-04-27T11:56:24.391Z,24.98
2023-04-27T11:57:24.412Z,24.99
2023-04-27T11:58:24.447Z,24.99
2023-04-27T11:59:24.493Z,24.98
2023-04-27T12:00:24.889Z,24.99
2023-04-27T12:01:34.839Z,24.99
2023-04-27T12:02:24.714Z,24.99
2023-04-27T12:03:24.715Z,24.99
2023-04-27T12:04:25.100Z,25.00
2023-04-27T12:05:24.629Z,25.00
2023-04-27T12:06:32.695Z,25.00
2023-04-27T12:07:24.544Z,25.00
2023-04-27T12:08:24.543Z,24.97
2023-04-27T12:09:24.532Z,24.74
2023-04-27T12:10:24.881Z,24.55
2023-04-27T12:11:24.512Z,24.42
2023-04-27T12:12:24.520Z,24.29
2023-04-27T12:13:24.884Z,24.20
2023-04-27T12:14:24.492Z,24.09
2023-04-27T12:15:24.482Z,24.01
2023-04-27T12:16:24.506Z,23.87
2023-04-27T12:17:24.478Z,23.76
2023-04-27T12:18:24.454Z,23.68
2023-04-27T12:19:24.441Z,23.59
2023-04-27T12:20:24.438Z,23.51
2023-04-27T12:21:24.456Z,23.46
2023-04-27T12:22:24.431Z,23.42
2023-04-27T12:23:24.420Z,23.38
2023-04-27T12:24:24.411Z,23.36
2023-04-27T12:25:24.409Z,23.33
2023-04-27T12:26:24.397Z,23.29
2023-04-27T12:27:24.384Z,23.25
2023-04-27T12:28:24.396Z,23.25
2023-04-27T12:29:24.379Z,23.23
2023-04-27T12:30:24.388Z,23.17
2023-04-27T12:31:26.883Z,23.13
2023-04-27T12:32:24.353Z,23.09
2023-04-27T12:33:24.351Z,23.05
2023-04-27T12:34:24.332Z,23.01
2023-04-27T12:35:24.338Z,22.98
2023-04-27T12:36:24.318Z,22.95
2023-04-27T12:37:26.721Z,22.91
2023-04-27T12:38:24.303Z,22.87
2023-04-27T12:39:24.342Z,22.81
2023-04-27T12:40:24.412Z,22.78
2023-04-27T12:41:24.272Z,22.77
2023-04-27T12:42:24.398Z,22.76
2023-04-27T12:43:24.406Z,22.75
2023-04-27T12:44:24.280Z,22.73
2023-04-27T12:45:24.400Z,22.71
2023-04-27T12:46:24.264Z,22.67
2023-04-27T12:48:23.215Z,22.64
2023-04-27T12:49:24.220Z,22.61
2023-04-27T12:50:24.212Z,22.60
2023-04-27T12:51:24.202Z,22.59
2023-04-27T12:52:24.212Z,22.57
2023-04-27T12:53:24.197Z,22.54
2023-04-27T12:54:24.186Z,22.50